Last 7 Days

Suisun Valley (SSV)

Hourly Data | America/Los_Angeles
as of 10/23/19 8:09 AM PDT
Date & Time Temp (°F) RH (%) Dew Pt (°F) Wind Spd (mph) Wind Dir (°) Wind Gust (mph) Latest Rain (In) Daily Rain (In) Daily Min Temp (°F) Daily Max Temp (°F)
10/23/19 - 0800 51.1 82 45.8 1.0 NNW | 334 4.1 0.00 0.00 50.5 55.8
10/23/19 - 0700 51.6 80 45.7 1.3 NW | 324 3.8 0.00 0.00 50.6 55.8
10/23/19 - 0600 51.7 80 45.8 1.4 NNW | 344 4.1 0.00 0.00 50.6 55.8
10/23/19 - 0500 51.8 78 45.2 0.9 N | 354 5.1 0.00 0.00 50.6 55.8
10/23/19 - 0400 51.6 77 44.6 0.9 NNW | 338 4.4 0.00 0.00 51.0 55.8
10/23/19 - 0300 53.1 72 44.4 0.8 NW | 312 4.1 0.00 0.00 52.3 55.8
10/23/19 - 0200 55.3 67 44.5 1.3 NNW | 333 5.1 0.00 0.00 54.6 55.8
10/23/19 - 0100 55.6 68 45.0 1.4 NW | 324 3.4 0.00 0.00 46.2 88.0
10/23/19 - 0000 57.1 64 45.2 0.8 NW | 319 3.1 0.00 0.00 46.2 88.0
10/22/19 - 2300 59.4 60 45.7 1.5 NW | 318 3.4 0.00 0.00 46.2 88.0
10/22/19 - 2200 62.0 56 46.0 1.7 NNW | 328 5.8 0.00 0.00 46.2 88.0
10/22/19 - 2100 63.2 54 46.4 1.8 NW | 318 4.1 0.00 0.00 46.2 88.0
10/22/19 - 2000 65.2 53 47.4 1.9 NNW | 329 4.1 0.00 0.00 46.2 88.0
10/22/19 - 1900 71.7 47 50.2 0.9 NNW | 345 3.4 0.00 0.00 46.2 88.0
10/22/19 - 1800 83.5 30 49.1 1.3 SSE | 154 5.1 0.00 0.00 46.2 88.0
10/22/19 - 1700 85.3 28 48.3 3.0 S | 182 6.8 0.00 0.00 46.2 88.0
10/22/19 - 1600 87.4 26 48.0 2.9 SSE | 159 6.4 0.00 0.00 46.2 88.0
10/22/19 - 1500 87.0 25 47.1 2.5 SSE | 158 7.4 0.00 0.00 46.2 87.7
10/22/19 - 1400 84.8 27 46.9 2.8 SSE | 164 7.1 0.00 0.00 46.2 86.3
10/22/19 - 1300 82.1 29 46.3 2.3 SE | 139 6.1 0.00 0.00 46.2 84.4
10/22/19 - 1200 76.6 35 46.8 2.8 SE | 129 7.1 0.00 0.00 46.2 79.6
10/22/19 - 1100 72.2 39 45.9 2.5 SE | 144 7.4 0.00 0.00 46.2 74.1
10/22/19 - 1000 68.2 43 44.9 1.5 E | 87 6.8 0.00 0.00 46.2 70.7
10/22/19 - 0900 57.4 61 44.0 1.2 NW | 321 3.4 0.00 0.00 46.2 62.8
10/22/19 - 0800 49.6 75 42.1 1.2 NW | 326 3.4 0.00 0.00 46.2 51.9
10/22/19 - 0700 48.6 76 41.6 1.3 NW | 321 3.8 0.00 0.00 46.2 51.6
10/22/19 - 0600 48.9 76 41.6 1.1 NNW | 331 3.4 0.00 0.00 46.2 51.6
10/22/19 - 0500 47.3 78 40.8 0.8 NNW | 336 2.7 0.00 0.00 46.2 51.6
10/22/19 - 0400 47.2 76 40.0 0.6 NNW | 331 3.1 0.00 0.00 46.2 51.6
10/22/19 - 0300 47.9 74 40.0 0.5 NNW | 330 2.7 0.00 0.00 47.1 51.6
10/22/19 - 0200 49.6 71 40.5 0.5 NNW | 346 2.4 0.00 0.00 48.1 51.6
10/22/19 - 0100 52.7 64 41.0 0.8 SW | 226 3.1 0.00 0.00 47.5 89.0
10/22/19 - 0000 56.5 52 39.1 0.7 SW | 231 3.1 0.00 0.00 47.5 89.0
10/21/19 - 2300 60.6 43 37.7 1.3 S | 174 3.8 0.00 0.00 47.5 89.0
10/21/19 - 2200 61.3 42 38.0 1.0 SSW | 209 3.4 0.00 0.00 47.5 89.0
10/21/19 - 2100 61.3 42 38.2 1.1 SW | 232 3.8 0.00 0.00 47.5 89.0
10/21/19 - 2000 70.7 31 37.5 1.1 W | 276 7.1 0.00 0.00 47.5 89.0
10/21/19 - 1900 81.0 17 32.5 5.0 N | 351 13.2 0.00 0.00 47.5 89.0
10/21/19 - 1800 85.4 15 32.3 6.1 NNW | 334 13.5 0.00 0.00 47.5 89.0
10/21/19 - 1700 87.6 16 35.8 6.9 NNW | 336 16.2 0.00 0.00 47.5 89.0
10/21/19 - 1600 88.3 18 38.8 6.5 NNW | 327 14.5 0.00 0.00 47.5 89.0
10/21/19 - 1500 88.3 18 39.7 6.3 NNW | 331 13.5 0.00 0.00 47.5 89.0
10/21/19 - 1400 87.1 20 41.4 4.6 N | 352 11.1 0.00 0.00 47.5 88.1
10/21/19 - 1300 84.3 24 43.5 4.7 N | 10 10.8 0.00 0.00 47.5 85.3
10/21/19 - 1200 81.2 26 42.8 5.8 N | 354 13.2 0.00 0.00 47.5 82.9
10/21/19 - 1100 76.8 34 45.7 4.3 N | 3 11.1 0.00 0.00 47.5 79.4
10/21/19 - 1000 70.1 48 49.5 1.7 SSE | 150 4.8 0.00 0.00 47.5 72.3
10/21/19 - 0900 61.9 65 49.5 1.2 W | 262 4.1 0.00 0.00 47.5 68.5
10/21/19 - 0800 48.6 87 45.0 0.5 WNW | 303 2.7 0.00 0.00 47.5 56.5
10/21/19 - 0700 48.9 86 44.9 0.8 NW | 316 3.8 0.00 0.00 48.0 56.5
10/21/19 - 0600 53.2 78 46.4 0.8 W | 274 3.8 0.00 0.00 49.8 56.5
10/21/19 - 0500 54.3 77 47.3 1.2 WNW | 293 5.4 0.00 0.00 52.5 56.5
10/21/19 - 0400 53.9 77 46.9 0.9 NNW | 329 3.4 0.00 0.00 53.2 54.9
10/21/19 - 0300 53.7 77 46.5 1.5 NW | 314 4.4 0.00 0.00 53.2 54.9
10/21/19 - 0200 54.2 74 46.0 1.0 NW | 324 4.1 0.00 0.00 53.3 54.9
10/21/19 - 0100 54.0 73 45.4 1.1 NW | 321 3.4 0.00 0.00 45.0 79.8
10/21/19 - 0000 55.6 67 45.0 1.0 NW | 316 3.1 0.00 0.00 45.0 79.8
10/20/19 - 2300 56.8 64 44.8 1.7 NW | 309 4.1 0.00 0.00 45.0 79.8
10/20/19 - 2200 57.3 62 44.6 1.4 NW | 321 4.1 0.00 0.00 45.0 79.8
10/20/19 - 2100 59.0 58 44.3 1.3 NW | 321 3.1 0.00 0.00 45.0 79.8
10/20/19 - 2000 61.1 55 45.0 0.7 NNW | 330 3.1 0.00 0.00 45.0 79.8
10/20/19 - 1900 70.0 39 43.5 2.7 SW | 234 7.8 0.00 0.00 45.0 79.8
10/20/19 - 1800 75.8 30 42.6 6.2 WSW | 240 14.2 0.00 0.00 45.0 79.8
10/20/19 - 1700 78.0 27 41.6 7.1 WSW | 242 15.8 0.00 0.00 45.0 79.8
10/20/19 - 1600 78.7 27 41.6 6.8 WSW | 242 12.8 0.00 0.00 45.0 79.8
10/20/19 - 1500 78.4 28 42.5 5.2 SW | 234 13.2 0.00 0.00 45.0 79.5
10/20/19 - 1400 77.1 31 44.3 4.6 SE | 146 10.8 0.00 0.00 45.0 78.2
10/20/19 - 1300 75.6 34 45.4 3.7 SSE | 151 8.1 0.00 0.00 45.0 77.1
10/20/19 - 1200 72.6 38 45.4 3.0 SE | 135 7.4 0.00 0.00 45.0 74.7
10/20/19 - 1100 68.8 46 47.1 2.1 SSE | 154 6.4 0.00 0.00 45.0 71.1
10/20/19 - 1000 65.7 55 49.3 1.4 SSE | 158 5.1 0.00 0.00 45.0 66.7
10/20/19 - 0900 56.1 84 51.0 0.6 SSW | 204 3.8 0.00 0.00 45.0 62.7
10/20/19 - 0800 46.3 94 44.7 0.5 W | 280 2.1 0.00 0.00 45.0 59.4
10/20/19 - 0700 47.4 92 45.2 0.5 NW | 306 2.4 0.00 0.00 45.8 59.4
10/20/19 - 0600 51.4 89 48.3 0.8 W | 274 3.4 0.00 0.00 49.2 59.4
10/20/19 - 0500 55.0 84 50.2 1.2 WNW | 286 5.1 0.00 0.00 49.2 59.4
10/20/19 - 0400 57.1 82 51.8 2.4 NNW | 344 8.8 0.00 0.00 49.2 59.4
10/20/19 - 0300 52.8 94 51.2 0.8 NW | 315 3.8 0.00 0.00 49.2 54.5
10/20/19 - 0200 50.1 94 48.5 0.6 NNW | 330 2.4 0.00 0.00 49.2 51.4
10/20/19 - 0100 50.4 93 48.5 0.4 N | 351 2.4 0.00 0.00 42.7 74.6
10/20/19 - 0000 51.1 93 49.1 0.8 WSW | 256 2.7 0.00 0.00 42.7 74.6
10/19/19 - 2300 51.6 91 49.1 0.5 WSW | 251 2.7 0.00 0.00 42.7 74.6
10/19/19 - 2200 54.4 90 51.5 0.5 WNW | 301 2.4 0.00 0.00 42.7 74.6
10/19/19 - 2100 57.2 86 53.2 0.8 NNW | 339 3.1 0.00 0.00 42.7 74.6
10/19/19 - 2000 62.3 80 55.9 1.3 WSW | 248 7.4 0.00 0.00 42.7 74.6
10/19/19 - 1900 65.9 73 57.1 3.9 SW | 215 9.1 0.00 0.00 42.7 74.6
10/19/19 - 1800 69.1 68 57.9 5.3 SW | 219 11.8 0.00 0.00 42.7 74.6
10/19/19 - 1700 71.5 63 58.3 6.8 SW | 221 12.8 0.00 0.00 42.7 74.6
10/19/19 - 1600 71.8 63 58.4 4.5 SW | 229 12.1 0.00 0.00 42.7 74.6
10/19/19 - 1500 71.7 61 57.6 7.4 SW | 216 15.2 0.00 0.00 42.7 74.6
10/19/19 - 1400 73.8 55 56.4 6.2 SW | 222 15.2 0.00 0.00 42.7 74.6
10/19/19 - 1300 72.1 56 55.7 6.1 WSW | 245 13.8 0.00 0.00 42.7 73.9
10/19/19 - 1200 67.8 58 52.7 5.1 W | 268 15.5 0.00 0.00 42.7 70.6
10/19/19 - 1100 64.9 56 48.8 7.2 WSW | 248 12.8 0.00 0.00 42.7 65.9
10/19/19 - 1000 60.4 61 47.0 2.5 SSW | 209 12.5 0.00 0.00 42.7 64.7
10/19/19 - 0900 50.2 85 45.8 0.9 N | 352 3.4 0.00 0.00 42.7 56.1
10/19/19 - 0800 46.7 91 44.1 1.0 NNE | 14 3.8 0.00 0.00 42.7 47.7
10/19/19 - 0700 46.3 92 44.0 1.2 NNW | 339 5.1 0.00 0.00 42.7 47.7
10/19/19 - 0600 44.2 94 42.6 0.7 NE | 54 3.4 0.00 0.00 42.7 45.4
10/19/19 - 0500 43.4 94 41.7 0.7 NW | 323 4.1 0.00 0.00 42.7 45.4
10/19/19 - 0400 43.7 93 41.9 0.6 NNW | 343 3.1 0.00 0.00 42.7 45.4
10/19/19 - 0300 43.5 92 41.4 0.5 NW | 304 2.7 0.00 0.00 42.7 45.4
10/19/19 - 0200 44.2 91 41.9 0.5 NNW | 344 2.4 0.00 0.00 43.7 45.4
10/19/19 - 0100 45.1 91 42.5 0.5 NNW | 335 2.7 0.00 0.00 43.1 73.1
10/19/19 - 0000 45.8 88 42.6 0.5 NNW | 348 3.1 0.00 0.00 43.1 73.1
10/18/19 - 2300 47.0 86 43.1 0.6 WNW | 303 3.8 0.00 0.00 43.1 73.1
10/18/19 - 2200 49.3 83 44.4 0.6 WSW | 247 3.4 0.00 0.00 43.1 73.1
10/18/19 - 2100 53.3 78 46.7 0.5 WNW | 287 3.4 0.00 0.00 43.1 73.1
10/18/19 - 2000 59.5 69 49.2 0.9 W | 260 4.8 0.00 0.00 43.1 73.1
10/18/19 - 1900 63.6 60 49.5 6.9 WSW | 242 15.2 0.00 0.00 43.1 73.1
10/18/19 - 1800 67.7 48 47.5 6.4 SW | 234 11.8 0.00 0.00 43.1 73.1
10/18/19 - 1700 69.8 42 45.8 6.6 SW | 234 12.8 0.00 0.00 43.1 73.1
10/18/19 - 1600 71.9 38 44.8 6.6 WSW | 246 14.5 0.00 0.00 43.1 73.1
10/18/19 - 1500 72.3 39 46.1 7.0 WSW | 246 13.5 0.00 0.00 43.1 73.1
10/18/19 - 1400 71.5 41 46.3 6.7 W | 262 14.2 0.00 0.00 43.1 72.5
10/18/19 - 1300 70.2 48 49.7 5.4 W | 270 12.1 0.00 0.00 43.1 71.3
10/18/19 - 1200 67.3 55 50.5 6.6 WSW | 256 14.5 0.00 0.00 43.1 69.4
10/18/19 - 1100 65.8 54 48.6 6.4 SW | 223 13.8 0.00 0.00 43.1 66.6
10/18/19 - 1000 63.2 53 46.0 4.2 SSW | 198 9.5 0.00 0.00 43.1 65.8
10/18/19 - 0900 54.3 67 43.6 1.0 NE | 50 3.8 0.00 0.00 43.1 61.0
10/18/19 - 0800 46.6 82 41.4 1.4 NNW | 344 4.1 0.00 0.00 43.1 58.2
10/18/19 - 0700 43.6 85 39.5 0.9 NW | 306 3.4 0.00 0.00 43.1 58.2
10/18/19 - 0600 44.2 83 39.5 0.8 NNW | 335 3.4 0.00 0.00 43.5 58.2
10/18/19 - 0500 45.3 80 39.6 0.8 N | 2 4.1 0.00 0.00 43.8 58.2
10/18/19 - 0400 49.7 72 41.0 0.9 SSW | 204 3.8 0.00 0.00 46.4 58.2
10/18/19 - 0300 52.9 67 42.1 1.7 NNW | 347 5.1 0.00 0.00 50.9 58.2
10/18/19 - 0200 55.6 60 42.1 2.1 NNW | 336 6.1 0.00 0.00 52.0 58.2
10/18/19 - 0100 59.0 53 42.0 3.8 N | 9 8.4 0.00 0.00 49.0 76.5
10/18/19 - 0000 60.2 50 41.7 3.1 NNW | 341 8.8 0.00 0.00 49.0 76.5
10/17/19 - 2300 62.3 46 41.3 5.3 NNW | 348 11.8 0.00 0.00 49.0 76.5
10/17/19 - 2200 63.6 42 39.8 5.9 NNW | 344 12.5 0.00 0.00 49.0 76.5
10/17/19 - 2100 64.6 39 39.1 5.3 NNW | 333 10.8 0.00 0.00 49.0 76.5
10/17/19 - 2000 66.2 36 38.7 5.9 NW | 304 13.5 0.00 0.00 49.0 76.5
10/17/19 - 1900 68.1 33 37.9 5.4 WNW | 287 12.8 0.00 0.00 49.0 76.5
10/17/19 - 1800 71.9 29 38.3 5.6 WNW | 296 14.2 0.00 0.00 49.0 76.5
10/17/19 - 1700 74.1 28 39.1 5.9 WNW | 292 12.1 0.00 0.00 49.0 76.5
10/17/19 - 1600 75.3 27 38.6 6.6 WNW | 294 15.2 0.00 0.00 49.0 76.5
10/17/19 - 1500 75.7 25 37.7 6.1 WNW | 296 13.8 0.00 0.00 49.0 76.5
10/17/19 - 1400 74.5 27 38.1 5.0 WNW | 293 11.5 0.00 0.00 49.0 75.8
10/17/19 - 1300 72.2 30 39.3 3.7 WNW | 282 10.5 0.00 0.00 49.0 73.5
10/17/19 - 1200 69.2 37 42.0 3.8 NW | 323 10.8 0.00 0.00 49.0 71.0
10/17/19 - 1100 67.0 42 43.1 5.9 NNW | 327 13.5 0.00 0.00 49.0 67.9
10/17/19 - 1000 63.4 51 44.8 4.3 NW | 325 12.8 0.00 0.00 49.0 65.4
10/17/19 - 0900 57.4 75 49.2 2.1 NNW | 331 9.1 0.00 0.00 49.0 60.9
10/17/19 - 0800 50.2 93 48.2 1.1 WNW | 292 3.4 0.00 0.00 49.0 60.9
10/17/19 - 0700 55.2 89 52.0 2.9 W | 259 10.5 0.00 0.00 51.5 60.9
10/17/19 - 0600 57.2 90 54.2 4.0 SW | 229 9.8 0.00 0.00 55.0 60.9
10/17/19 - 0500 55.7 91 53.2 1.1 S | 176 8.4 0.00 0.00 55.0 60.9
10/17/19 - 0400 56.8 90 54.0 2.5 SW | 227 7.4 0.00 0.00 56.2 60.9
10/17/19 - 0300 58.5 87 54.7 2.9 WSW | 255 10.8 0.00 0.00 57.3 60.9
10/17/19 - 0200 60.2 85 55.8 4.2 WSW | 244 10.1 0.00 0.00 59.6 60.9
10/17/19 - 0100 61.7 82 56.1 5.2 WSW | 243 14.2 0.00 0.00 39.7 75.7
10/17/19 - 0000 62.6 74 54.1 5.9 SW | 232 12.8 0.00 0.00 39.7 75.7
10/16/19 - 2300 62.8 69 52.6 5.3 WSW | 242 14.5 0.00 0.00 39.7 75.7
10/16/19 - 2200 61.8 67 50.8 3.4 WSW | 239 10.1 0.00 0.00 39.7 75.7
10/16/19 - 2100 60.2 69 49.9 3.3 SSW | 198 11.5 0.00 0.00 39.7 75.7
10/16/19 - 2000 61.3 65 49.4 1.5 S | 172 7.1 0.00 0.00 39.7 75.7
10/16/19 - 1900 63.0 60 48.7 2.6 S | 189 6.8 0.00 0.00 39.7 75.7
10/16/19 - 1800 65.5 50 46.6 4.6 SW | 235 12.8 0.00 0.00 39.7 75.7
10/16/19 - 1700 69.4 45 47.4 6.7 WSW | 243 14.2 0.00 0.00 39.7 75.7
10/16/19 - 1600 71.9 36 43.2 7.3 SW | 236 16.5 0.00 0.00 39.7 75.7
10/16/19 - 1500 74.4 22 33.3 5.6 WSW | 237 11.5 0.00 0.00 39.7 75.7
10/16/19 - 1400 74.1 31 41.3 3.6 SSE | 152 10.1 0.00 0.00 39.7 75.7
10/16/19 - 1300 70.5 38 43.6 3.3 SE | 131 6.8 0.00 0.00 39.7 72.6
10/16/19 - 1200 67.5 42 43.6 1.9 SE | 142 4.8 0.00 0.00 39.7 69.6
10/16/19 - 1100 62.6 50 43.9 1.0 ESE | 121 3.4 0.00 0.00 39.7 65.0
10/16/19 - 1000 58.6 51 40.5 0.6 SSE | 148 3.4 0.00 0.00 39.7 60.3
10/16/19 - 0900 50.7 66 39.6 0.7 NNW | 335 2.7 0.00 0.00 39.7 56.0
Max 88.3 94 58.4 7.4 - 16.5 0.00 0.00 59.6 89.0
Avg 62.1 60 45.4 2.8 - 7.5 0.00 - - -
Min 43.4 15 32.3 0.4 - 2.1 0.00 0.00 39.7 45.4
Total - - - - - - 0.00 - - -
Tip: Bookmark this page for easy future reference